Time;durP1;ratioP1;P1;durP2;ratioP2;P2;SDS_P1;SDS_P2;PMS_P1;PMS_P2;Temp;Humidity;BMP_temperature;BMP_pressure;BME280_temperature;BME280_humidity;BME280_pressure;Samples;Min_cycle;Max_cycle;Signal;HPM_P1;HPM_P2
2022/09/10 00:01:31;;;;;;;16.88;13.88;;;15.00;99.90;;;;;;5090305;27;20103;-85
2022/09/10 00:04:10;;;;;;;15.60;13.90;;;14.90;99.90;;;;;;5093532;27;20464;-84
2022/09/10 00:07:02;;;;;;;16.95;13.18;;;14.90;99.90;;;;;;5110422;27;20135;-84
2022/09/10 00:09:30;;;;;;;14.02;12.52;;;14.90;99.90;;;;;;5092607;27;20046;-84
2022/09/10 00:12:25;;;;;;;17.02;13.38;;;14.90;99.90;;;;;;5092025;27;20127;-84
2022/09/10 00:15:09;;;;;;;17.15;13.35;;;14.90;99.90;;;;;;5083219;27;20095;-84
2022/09/10 00:17:50;;;;;;;17.45;14.07;;;14.90;99.90;;;;;;5083979;27;20062;-84
2022/09/10 00:20:16;;;;;;;17.95;14.13;;;14.90;99.90;;;;;;5101407;27;20043;-83
2022/09/10 00:22:45;;;;;;;17.80;14.13;;;14.80;99.90;;;;;;5100288;27;20103;-84
2022/09/10 00:25:17;;;;;;;16.08;13.98;;;14.80;99.90;;;;;;5118879;27;20102;-84
2022/09/10 00:27:51;;;;;;;19.52;14.77;;;14.80;99.90;;;;;;5114200;27;20043;-85
2022/09/10 00:30:43;;;;;;;15.60;14.00;;;14.80;99.90;;;;;;5100179;27;20058;-85
2022/09/10 00:33:12;;;;;;;16.02;13.93;;;14.80;99.90;;;;;;5111159;27;20047;-84
2022/09/10 00:35:45;;;;;;;18.02;14.77;;;14.70;99.90;;;;;;5100676;27;20047;-84
2022/09/10 00:38:21;;;;;;;15.90;14.20;;;14.70;99.90;;;;;;5100363;27;20058;-84
2022/09/10 00:40:52;;;;;;;20.58;14.57;;;14.70;99.90;;;;;;5109780;27;20118;-84
2022/09/10 00:43:57;;;;;;;20.25;15.07;;;14.80;99.90;;;;;;5100238;28;20046;-84
2022/09/10 00:46:36;;;;;;;17.45;14.02;;;14.80;99.90;;;;;;5101275;27;20490;-84
2022/09/10 00:49:33;;;;;;;16.02;13.57;;;14.80;99.90;;;;;;5116669;28;20058;-84
2022/09/10 00:52:06;;;;;;;17.58;14.45;;;14.80;99.90;;;;;;5120277;27;20035;-84
2022/09/10 00:55:05;;;;;;;17.65;15.48;;;14.80;99.90;;;;;;5102855;27;20050;-84
2022/09/10 00:57:33;;;;;;;20.40;15.75;;;14.90;99.90;;;;;;5104680;28;20487;-84
2022/09/10 01:00:07;;;;;;;19.55;15.80;;;14.80;99.90;;;;;;5119097;27;20046;-84
2022/09/10 01:02:41;;;;;;;17.50;15.25;;;14.90;99.90;;;;;;5111662;27;20097;-84
2022/09/10 01:05:18;;;;;;;22.00;17.40;;;14.90;99.90;;;;;;5095714;27;20119;-84
2022/09/10 01:08:16;;;;;;;20.60;16.67;;;14.90;99.90;;;;;;5082569;28;20555;-84
2022/09/10 01:11:26;;;;;;;19.42;15.63;;;14.90;99.90;;;;;;5112618;27;20510;-84
2022/09/10 01:14:36;;;;;;;20.00;15.30;;;14.90;99.90;;;;;;5093670;28;20130;-84
2022/09/10 01:17:49;;;;;;;19.42;15.95;;;14.90;99.90;;;;;;5119147;27;20436;-84
2022/09/10 01:20:19;;;;;;;20.63;15.63;;;14.90;99.90;;;;;;5118844;27;20087;-84
2022/09/10 01:23:30;;;;;;;18.38;15.40;;;14.90;99.90;;;;;;5092661;27;20096;-84
2022/09/10 01:26:41;;;;;;;18.77;14.48;;;14.80;99.90;;;;;;5106014;28;20078;-84
2022/09/10 01:32:37;;;;;;;20.20;16.02;;;14.80;99.90;;;;;;5123901;27;20044;-84
2022/09/10 01:35:50;;;;;;;21.98;16.60;;;14.80;99.90;;;;;;5099475;27;20096;-84
2022/09/10 01:38:50;;;;;;;18.90;16.40;;;14.80;99.90;;;;;;5111233;27;20039;-84
2022/09/10 01:41:33;;;;;;;18.05;15.88;;;14.80;99.90;;;;;;5096326;27;20134;-84
2022/09/10 01:44:26;;;;;;;17.63;14.95;;;14.80;99.90;;;;;;5100703;27;20121;-84
2022/09/10 01:47:05;;;;;;;21.52;17.27;;;14.80;99.90;;;;;;5112636;28;20517;-84
2022/09/10 01:50:21;;;;;;;24.40;16.42;;;14.70;99.90;;;;;;5100402;27;20513;-84
2022/09/10 01:52:56;;;;;;;18.35;15.55;;;14.70;99.90;;;;;;5123192;27;20054;-84
2022/09/10 01:56:16;;;;;;;21.07;16.53;;;14.70;99.90;;;;;;5116670;27;20078;-84
2022/09/10 02:05:45;;;;;;;19.48;15.88;;;14.70;99.90;;;;;;5097918;27;20495;-84
2022/09/10 02:08:42;;;;;;;21.58;17.13;;;14.70;99.90;;;;;;5098328;27;20479;-84
2022/09/10 02:11:46;;;;;;;20.35;16.23;;;14.80;99.90;;;;;;5108506;27;20103;-84
2022/09/10 02:14:44;;;;;;;20.40;17.27;;;14.80;99.90;;;;;;5073949;27;20913;-84
2022/09/10 02:17:32;;;;;;;22.40;16.10;;;14.80;99.90;;;;;;5098625;28;20055;-83
2022/09/10 02:20:13;;;;;;;21.60;15.52;;;14.80;99.90;;;;;;5095560;28;20571;-83
2022/09/10 02:23:02;;;;;;;21.48;17.15;;;14.80;99.90;;;;;;5101834;28;20088;-84
2022/09/10 02:25:57;;;;;;;21.73;15.88;;;14.90;99.90;;;;;;5117037;28;20042;-85
2022/09/10 02:28:23;;;;;;;23.45;16.80;;;14.90;99.90;;;;;;5115230;28;20059;-84
2022/09/10 02:30:57;;;;;;;20.02;16.55;;;14.90;99.90;;;;;;5104043;28;20361;-83
2022/09/10 02:36:14;;;;;;;22.63;16.13;;;14.90;99.90;;;;;;5069227;28;20051;-84
2022/09/10 02:38:40;;;;;;;21.98;17.48;;;15.00;99.90;;;;;;5075675;28;20047;-84
2022/09/10 02:41:14;;;;;;;23.95;18.02;;;14.90;99.90;;;;;;5099628;28;20047;-84
2022/09/10 02:43:48;;;;;;;24.67;17.25;;;15.00;99.90;;;;;;5130548;27;20092;-84
2022/09/10 02:46:27;;;;;;;23.33;17.13;;;15.00;99.90;;;;;;5085392;28;20126;-84
2022/09/10 02:49:16;;;;;;;21.60;16.02;;;15.00;99.90;;;;;;5093273;27;20038;-84
2022/09/10 02:51:50;;;;;;;20.05;17.20;;;15.00;99.90;;;;;;5098751;28;20510;-85
2022/09/10 02:54:51;;;;;;;18.45;16.35;;;15.00;99.90;;;;;;5089975;28;20035;-84
2022/09/10 02:57:25;;;;;;;20.58;16.17;;;15.10;99.90;;;;;;5093497;28;20050;-84
2022/09/10 03:03:07;;;;;;;21.40;16.52;;;15.10;99.90;;;;;;5115600;28;20402;-85
2022/09/10 03:05:37;;;;;;;21.23;15.52;;;15.10;99.90;;;;;;5117562;28;20114;-84
2022/09/10 03:08:25;;;;;;;22.95;16.52;;;15.10;99.90;;;;;;5098088;28;20047;-83
2022/09/10 03:11:26;;;;;;;22.80;15.77;;;15.10;99.90;;;;;;5109844;28;20398;-85
2022/09/10 03:14:29;;;;;;;;;;;;;;;;;;;;;
2022/09/10 03:16:54;;;;;;;19.25;15.52;;;15.20;99.90;;;;;;5041357;28;20109;-84
2022/09/10 03:19:29;;;;;;;19.95;15.75;;;15.20;99.90;;;;;;5116614;27;20072;-84
2022/09/10 03:22:03;;;;;;;22.98;15.35;;;15.20;99.90;;;;;;5102597;27;20047;-84
2022/09/10 03:24:31;;;;;;;18.92;14.73;;;15.20;99.90;;;;;;5102841;27;20526;-83
2022/09/10 03:27:02;;;;;;;19.50;14.85;;;15.20;99.90;;;;;;5100628;27;20490;-84
2022/09/10 03:29:37;;;;;;;18.20;14.43;;;15.20;99.90;;;;;;5104935;27;20054;-84
2022/09/10 03:32:07;;;;;;;21.25;14.60;;;15.20;99.90;;;;;;5095963;28;20071;-84
2022/09/10 03:34:38;;;;;;;18.38;14.60;;;15.20;99.90;;;;;;5095872;27;20390;-84
2022/09/10 03:37:07;;;;;;;25.00;15.68;;;15.20;99.90;;;;;;5104084;27;20043;-84
2022/09/10 03:39:33;;;;;;;20.67;15.10;;;15.20;99.90;;;;;;5079701;28;20087;-82
2022/09/10 03:41:59;;;;;;;19.48;14.82;;;15.20;99.90;;;;;;5101414;27;20114;-81
2022/09/10 03:44:25;;;;;;;21.27;15.93;;;15.20;99.90;;;;;;5093705;27;20035;-84
2022/09/10 03:46:51;;;;;;;21.17;15.50;;;15.20;99.90;;;;;;5111484;27;20119;-81
2022/09/10 03:49:17;;;;;;;26.67;16.85;;;15.20;99.90;;;;;;5103347;27;20035;-81
2022/09/10 03:51:43;;;;;;;22.98;15.82;;;15.20;99.90;;;;;;5085888;27;20808;-82
2022/09/10 03:54:09;;;;;;;26.23;15.90;;;15.30;99.90;;;;;;5085026;27;20552;-81
2022/09/10 03:56:35;;;;;;;23.70;14.95;;;15.20;99.90;;;;;;5060725;27;20041;-81
2022/09/10 03:59:01;;;;;;;22.33;15.93;;;15.20;99.90;;;;;;5135149;27;20118;-81
2022/09/10 04:01:26;;;;;;;24.85;15.88;;;15.20;99.90;;;;;;5098293;27;20046;-80
2022/09/10 04:03:55;;;;;;;21.05;16.17;;;15.20;99.90;;;;;;5104657;27;20130;-81
2022/09/10 04:06:21;;;;;;;21.73;16.50;;;15.20;99.90;;;;;;5116493;27;20039;-79
2022/09/10 04:08:54;;;;;;;22.88;17.50;;;15.20;99.90;;;;;;5101087;27;20126;-80
2022/09/10 04:11:22;;;;;;;23.48;17.05;;;15.20;99.90;;;;;;5100591;27;20520;-81
2022/09/10 04:13:48;;;;;;;23.35;15.85;;;15.20;99.90;;;;;;5084012;27;20054;-81
2022/09/10 04:16:15;;;;;;;27.80;17.45;;;15.10;99.90;;;;;;5059281;27;20039;-82
2022/09/10 04:18:41;;;;;;;19.92;15.35;;;15.10;99.90;;;;;;5119141;27;20053;-81
2022/09/10 04:21:07;;;;;;;25.98;16.83;;;15.10;99.90;;;;;;5109724;27;20517;-82
2022/09/10 04:23:33;;;;;;;26.02;18.17;;;15.10;99.90;;;;;;5119329;27;20043;-81
2022/09/10 04:25:59;;;;;;;26.27;17.65;;;15.10;99.90;;;;;;5081242;27;20039;-81
2022/09/10 04:28:25;;;;;;;26.55;16.88;;;15.20;99.90;;;;;;5084805;27;20039;-82
2022/09/10 04:30:51;;;;;;;29.05;18.33;;;15.10;99.90;;;;;;5115136;27;20043;-81
2022/09/10 04:33:17;;;;;;;28.25;17.05;;;15.10;99.90;;;;;;5119896;27;20043;-82
2022/09/10 04:35:44;;;;;;;23.25;17.92;;;15.00;99.90;;;;;;5116290;27;20127;-81
2022/09/10 04:38:10;;;;;;;26.65;17.05;;;15.00;99.90;;;;;;5119327;27;20046;-81
2022/09/10 04:40:37;;;;;;;26.10;18.75;;;15.00;99.90;;;;;;5122073;27;20038;-81
2022/09/10 04:43:04;;;;;;;26.70;18.90;;;15.00;99.90;;;;;;5114852;27;20035;-80
2022/09/10 04:45:33;;;;;;;25.23;17.88;;;15.00;99.90;;;;;;5088310;27;20035;-81
2022/09/10 04:47:59;;;;;;;27.00;17.48;;;15.00;99.90;;;;;;5105614;27;20062;-81
2022/09/10 04:50:26;;;;;;;26.42;18.08;;;15.00;99.90;;;;;;5084040;28;20548;-81
2022/09/10 04:52:52;;;;;;;32.08;17.77;;;14.90;99.90;;;;;;5078459;28;20039;-81
2022/09/10 04:55:19;;;;;;;29.70;18.77;;;14.90;99.90;;;;;;5079257;27;20063;-81
2022/09/10 04:57:45;;;;;;;24.58;17.88;;;14.90;99.90;;;;;;5083964;27;20039;-82
2022/09/10 05:00:12;;;;;;;28.42;18.75;;;14.90;99.90;;;;;;5082328;27;20379;-81
2022/09/10 05:02:38;;;;;;;27.33;18.33;;;14.90;99.90;;;;;;5080784;27;20511;-81
2022/09/10 05:05:05;;;;;;;28.13;18.63;;;14.90;99.90;;;;;;5098426;27;20037;-81
2022/09/10 05:07:32;;;;;;;30.65;18.27;;;15.00;99.90;;;;;;5060118;27;20038;-81
2022/09/10 05:09:58;;;;;;;28.92;19.42;;;14.90;99.90;;;;;;5094277;27;20046;-81
2022/09/10 05:12:25;;;;;;;28.08;19.55;;;14.90;99.90;;;;;;5073719;27;20046;-80
2022/09/10 05:14:53;;;;;;;31.67;19.80;;;15.00;99.90;;;;;;5100387;27;20059;-80
2022/09/10 05:17:20;;;;;;;26.00;19.00;;;15.00;99.90;;;;;;5061521;27;20038;-82
2022/09/10 05:19:46;;;;;;;32.85;19.90;;;15.00;99.90;;;;;;5099591;27;20050;-81
2022/09/10 05:22:12;;;;;;;28.75;19.90;;;15.00;99.90;;;;;;5091532;28;20499;-81
2022/09/10 05:24:38;;;;;;;30.17;19.30;;;15.00;99.90;;;;;;5078258;27;20084;-81
2022/09/10 05:27:04;;;;;;;27.45;19.83;;;15.00;99.90;;;;;;5095267;27;20468;-81
2022/09/10 05:29:30;;;;;;;26.92;19.00;;;15.10;99.90;;;;;;5094303;27;20035;-81
2022/09/10 05:31:55;;;;;;;31.85;20.35;;;15.10;99.90;;;;;;5082181;27;20043;-81
2022/09/10 05:34:21;;;;;;;27.63;19.60;;;15.10;99.90;;;;;;5099028;27;20041;-81
2022/09/10 05:36:47;;;;;;;28.90;19.42;;;15.10;99.90;;;;;;5083241;27;20047;-81
2022/09/10 05:39:14;;;;;;;30.90;20.45;;;15.10;99.90;;;;;;5061002;27;20516;-81
2022/09/10 05:41:42;;;;;;;26.35;19.13;;;15.10;99.90;;;;;;5096762;27;20472;-81
2022/09/10 05:44:08;;;;;;;28.42;19.02;;;15.20;99.90;;;;;;5098782;27;20385;-81
2022/09/10 05:46:33;;;;;;;29.08;20.63;;;15.20;99.90;;;;;;5085876;27;20039;-81
2022/09/10 05:49:00;;;;;;;32.72;20.52;;;15.20;99.90;;;;;;5099455;27;20650;-81
2022/09/10 05:51:28;;;;;;;32.08;20.20;;;15.30;99.90;;;;;;5072503;27;20031;-81
2022/09/10 05:53:54;;;;;;;29.00;20.40;;;15.30;99.90;;;;;;5099919;27;20041;-81
2022/09/10 05:56:20;;;;;;;28.08;19.67;;;15.40;99.90;;;;;;5101584;27;20114;-81
2022/09/10 05:58:46;;;;;;;26.88;20.40;;;15.50;99.90;;;;;;5097233;27;20054;-81
2022/09/10 06:01:12;;;;;;;29.17;19.65;;;15.50;99.90;;;;;;5100660;27;20039;-81
2022/09/10 06:03:39;;;;;;;25.92;19.45;;;15.50;99.90;;;;;;5060050;27;20117;-81
2022/09/10 06:06:05;;;;;;;26.05;18.88;;;15.50;99.90;;;;;;5117322;27;20065;-81
2022/09/10 06:08:31;;;;;;;29.70;20.27;;;15.50;99.90;;;;;;5093937;27;20483;-81
2022/09/10 06:10:59;;;;;;;36.35;19.55;;;15.50;99.90;;;;;;5075868;27;20043;-81
2022/09/10 06:13:25;;;;;;;31.00;20.35;;;15.60;99.90;;;;;;5100365;28;20044;-81
2022/09/10 06:15:51;;;;;;;24.98;18.85;;;15.60;99.90;;;;;;5084633;27;20459;-82
2022/09/10 06:18:18;;;;;;;33.88;20.05;;;15.60;99.90;;;;;;5100749;28;20050;-82
2022/09/10 06:20:44;;;;;;;29.63;20.58;;;15.60;99.90;;;;;;5092287;27;20055;-81
2022/09/10 06:23:10;;;;;;;30.80;19.90;;;15.60;99.90;;;;;;5075049;28;20414;-82
2022/09/10 06:25:36;;;;;;;33.80;20.40;;;15.60;99.90;;;;;;5080716;27;20057;-81
2022/09/10 06:28:02;;;;;;;27.30;19.05;;;15.70;99.90;;;;;;5087416;27;20122;-80
2022/09/10 06:30:28;;;;;;;29.98;19.77;;;15.70;99.90;;;;;;5084848;28;20088;-81
2022/09/10 06:32:53;;;;;;;25.17;19.05;;;15.70;99.90;;;;;;5100276;28;20043;-81
2022/09/10 06:35:20;;;;;;;30.55;20.70;;;15.70;99.90;;;;;;5097841;28;20399;-81
2022/09/10 06:37:46;;;;;;;24.63;18.35;;;15.80;99.90;;;;;;5112132;28;20059;-80
2022/09/10 06:40:12;;;;;;;30.25;18.88;;;15.80;99.90;;;;;;5073876;28;20040;-81
2022/09/10 06:42:37;;;;;;;23.73;18.38;;;15.80;99.90;;;;;;5092207;27;20035;-82
2022/09/10 06:45:04;;;;;;;25.63;18.42;;;15.80;99.90;;;;;;5095705;28;20036;-82
2022/09/10 06:47:30;;;;;;;27.08;18.15;;;15.80;99.90;;;;;;5077540;28;20126;-82
2022/09/10 06:49:55;;;;;;;27.50;18.33;;;15.90;99.90;;;;;;5097952;28;20039;-82
2022/09/10 06:52:21;;;;;;;30.70;18.83;;;15.90;99.90;;;;;;5094637;27;20525;-82
2022/09/10 06:54:47;;;;;;;30.17;18.75;;;15.90;99.90;;;;;;5106096;28;20039;-82
2022/09/10 06:57:12;;;;;;;25.80;18.40;;;16.00;99.90;;;;;;5084963;27;20039;-82
2022/09/10 06:59:38;;;;;;;29.50;19.38;;;16.00;99.90;;;;;;5098841;27;20047;-83
2022/09/10 07:02:04;;;;;;;27.10;18.67;;;16.00;99.90;;;;;;5063677;28;20071;-82
2022/09/10 07:04:30;;;;;;;27.85;18.60;;;16.00;99.90;;;;;;5090283;28;20395;-82
2022/09/10 07:06:56;;;;;;;29.92;19.98;;;16.10;99.90;;;;;;5111265;28;20039;-82
2022/09/10 07:09:22;;;;;;;27.92;19.83;;;16.10;99.90;;;;;;5066058;27;20040;-82
2022/09/10 07:11:47;;;;;;;32.03;19.92;;;16.20;99.90;;;;;;5119057;27;20099;-82
2022/09/10 07:14:13;;;;;;;27.70;19.20;;;16.20;99.90;;;;;;5118923;27;20035;-83
2022/09/10 07:16:40;;;;;;;25.63;18.38;;;16.20;99.90;;;;;;5120420;27;20047;-82
2022/09/10 07:19:06;;;;;;;21.15;17.25;;;16.20;99.90;;;;;;5094553;27;20067;-82
2022/09/10 07:21:36;;;;;;;20.50;16.80;;;16.20;99.90;;;;;;5108368;28;20048;-83
2022/09/10 07:24:04;;;;;;;25.75;16.70;;;16.30;99.90;;;;;;5093979;28;20042;-82
2022/09/10 07:26:31;;;;;;;22.08;16.63;;;16.30;99.90;;;;;;5110960;28;20039;-82
2022/09/10 07:28:57;;;;;;;23.48;15.10;;;16.30;99.90;;;;;;5079440;28;20071;-81
2022/09/10 07:31:29;;;;;;;23.67;17.83;;;16.30;99.90;;;;;;5103207;28;20088;-82
2022/09/10 07:33:59;;;;;;;23.52;16.20;;;16.40;99.90;;;;;;5115883;28;20043;-84
2022/09/10 07:36:26;;;;;;;24.88;16.33;;;16.40;99.90;;;;;;5094158;28;20096;-84
2022/09/10 07:38:56;;;;;;;21.73;15.43;;;16.50;99.90;;;;;;5073795;28;20042;-82
2022/09/10 07:41:23;;;;;;;23.55;14.57;;;16.50;99.90;;;;;;5091559;28;20047;-82
2022/09/10 07:43:53;;;;;;;19.13;14.98;;;16.60;99.90;;;;;;5113413;28;20061;-81
2022/09/10 07:46:20;;;;;;;20.63;15.43;;;16.60;99.90;;;;;;5100003;28;20036;-81
2022/09/10 07:48:49;;;;;;;19.95;15.80;;;16.60;99.90;;;;;;5089051;28;20078;-81
2022/09/10 07:51:18;;;;;;;24.25;15.52;;;16.70;99.90;;;;;;5098476;28;20403;-81
2022/09/10 07:53:50;;;;;;;22.90;15.70;;;16.70;99.90;;;;;;5070352;28;20047;-81
2022/09/10 07:56:15;;;;;;;21.55;15.15;;;16.70;99.90;;;;;;5100723;28;20518;-81
2022/09/10 07:58:41;;;;;;;20.30;15.43;;;16.80;99.90;;;;;;5111932;28;20039;-81
2022/09/10 08:01:11;;;;;;;22.95;16.27;;;16.80;99.90;;;;;;5076688;28;20479;-81
2022/09/10 08:03:38;;;;;;;21.38;14.82;;;16.90;99.90;;;;;;5088360;28;20051;-82
2022/09/10 08:06:05;;;;;;;17.08;14.18;;;17.00;99.90;;;;;;5063727;28;20387;-82
2022/09/10 08:08:34;;;;;;;18.30;14.65;;;17.10;99.90;;;;;;5071800;28;20032;-82
2022/09/10 08:11:05;;;;;;;16.42;14.18;;;17.20;99.90;;;;;;5093651;28;20036;-82
2022/09/10 08:13:33;;;;;;;19.27;14.23;;;17.30;99.90;;;;;;5115173;28;20043;-82
2022/09/10 08:15:59;;;;;;;17.27;13.18;;;17.40;99.90;;;;;;5107204;28;20043;-82
2022/09/10 08:18:25;;;;;;;18.92;12.23;;;17.40;99.90;;;;;;5070987;28;20040;-82
2022/09/10 08:20:54;;;;;;;14.73;12.00;;;17.50;99.90;;;;;;5085517;27;20055;-83
2022/09/10 08:23:20;;;;;;;17.33;12.27;;;17.50;99.90;;;;;;5095878;27;20042;-82
2022/09/10 08:25:52;;;;;;;15.40;12.88;;;17.40;99.90;;;;;;5082901;27;20095;-82
2022/09/10 08:28:18;;;;;;;16.42;12.30;;;17.50;99.90;;;;;;5096071;28;20071;-82
2022/09/10 08:31:08;;;;;;;16.45;11.85;;;17.50;99.90;;;;;;5076578;28;20043;-82
2022/09/10 08:33:35;;;;;;;18.40;12.32;;;17.50;99.90;;;;;;5113060;27;20049;-83
2022/09/10 08:36:02;;;;;;;19.52;12.13;;;17.50;99.90;;;;;;5118601;27;20122;-82
2022/09/10 08:38:33;;;;;;;13.15;11.18;;;17.60;99.90;;;;;;5101490;27;20047;-82
2022/09/10 08:41:07;;;;;;;18.58;11.48;;;17.70;99.90;;;;;;5089474;27;20078;-82
2022/09/10 08:43:52;;;;;;;13.65;11.43;;;17.70;99.90;;;;;;5117953;27;20487;-82
2022/09/10 08:46:23;;;;;;;15.05;10.77;;;17.70;99.90;;;;;;5100262;27;20079;-82
2022/09/10 08:48:56;;;;;;;17.55;11.00;;;17.80;99.90;;;;;;5100042;27;20495;-82
2022/09/10 08:51:27;;;;;;;14.65;11.35;;;17.80;99.90;;;;;;5100497;27;20060;-82
2022/09/10 08:54:12;;;;;;;16.63;11.35;;;17.80;99.90;;;;;;5099201;27;20043;-82
2022/09/10 08:56:41;;;;;;;15.70;11.87;;;17.80;99.90;;;;;;5092809;27;20039;-82
2022/09/10 08:59:25;;;;;;;14.45;10.55;;;17.80;99.90;;;;;;5112074;27;20044;-82
2022/09/10 09:01:58;;;;;;;13.85;10.90;;;17.80;99.90;;;;;;5086789;27;20494;-82
2022/09/10 09:04:41;;;;;;;15.73;10.63;;;17.80;99.90;;;;;;5101712;27;20453;-82
2022/09/10 09:07:18;;;;;;;13.43;10.65;;;17.90;99.90;;;;;;5098365;27;20034;-81
2022/09/10 09:09:47;;;;;;;14.63;10.45;;;17.90;99.90;;;;;;5110152;27;20038;-82
2022/09/10 09:12:32;;;;;;;14.35;10.38;;;17.90;99.90;;;;;;5085118;27;20380;-82
2022/09/10 09:15:03;;;;;;;12.90;10.43;;;18.00;99.90;;;;;;5087545;28;20106;-81
2022/09/10 09:17:50;;;;;;;14.23;10.43;;;18.20;99.90;;;;;;5093764;28;20040;-81
2022/09/10 09:20:17;;;;;;;16.48;9.88;;;18.20;99.90;;;;;;5085253;28;20480;-81
2022/09/10 09:22:52;;;;;;;11.40;10.18;;;18.30;99.90;;;;;;5088778;28;20594;-81
2022/09/10 09:25:43;;;;;;;10.88;9.77;;;18.40;99.90;;;;;;5108574;28;20514;-81
2022/09/10 09:28:20;;;;;;;12.77;9.68;;;18.40;99.90;;;;;;5108889;28;20395;-80
2022/09/10 09:30:48;;;;;;;14.50;9.25;;;18.40;99.90;;;;;;5079474;28;20063;-81
2022/09/10 09:33:18;;;;;;;15.60;10.70;;;18.30;99.90;;;;;;5090018;28;20445;-82
2022/09/10 09:35:47;;;;;;;13.38;9.57;;;18.30;99.90;;;;;;5090618;28;20044;-83
2022/09/10 09:38:23;;;;;;;11.52;10.02;;;18.30;99.90;;;;;;5111572;28;20031;-81
2022/09/10 09:41:16;;;;;;;12.55;10.32;;;18.30;99.90;;;;;;5089453;28;20043;-82
2022/09/10 09:43:56;;;;;;;12.77;10.07;;;18.40;99.90;;;;;;5088737;27;20044;-81
2022/09/10 09:46:23;;;;;;;14.95;9.35;;;18.40;99.90;;;;;;5108251;27;20040;-80
2022/09/10 09:48:53;;;;;;;13.18;9.13;;;18.30;99.90;;;;;;5074291;28;20039;-81
2022/09/10 09:51:20;;;;;;;10.95;9.20;;;18.40;99.90;;;;;;5094771;28;20149;-80
2022/09/10 09:54:02;;;;;;;11.95;8.75;;;18.50;99.90;;;;;;5096235;28;20127;-81
2022/09/10 09:56:37;;;;;;;10.05;8.23;;;18.60;99.90;;;;;;5088380;28;20040;-81
2022/09/10 09:59:10;;;;;;;7.60;6.40;;;18.80;99.90;;;;;;5093353;28;20100;-80
2022/09/10 10:01:41;;;;;;;11.57;6.97;;;18.90;99.90;;;;;;5112061;28;20054;-81
2022/09/10 10:04:23;;;;;;;9.63;6.63;;;19.10;99.90;;;;;;5077117;28;20074;-80
2022/09/10 10:07:00;;;;;;;9.30;5.18;;;19.30;99.90;;;;;;5084839;28;20112;-82
2022/09/10 10:09:28;;;;;;;8.13;4.35;;;19.40;99.90;;;;;;5097921;28;20032;-82
2022/09/10 10:11:58;;;;;;;7.43;3.92;;;19.50;99.90;;;;;;5110673;28;20038;-81
2022/09/10 10:14:38;;;;;;;4.95;2.83;;;19.70;99.90;;;;;;5093175;28;20047;-80
2022/09/10 10:17:20;;;;;;;4.32;2.35;;;19.80;99.90;;;;;;5097232;28;20598;-81
2022/09/10 10:20:09;;;;;;;7.72;3.28;;;19.80;99.90;;;;;;5104292;28;20067;-82
2022/09/10 10:22:37;;;;;;;5.32;3.53;;;19.90;99.90;;;;;;5097788;28;20047;-81
2022/09/10 10:25:24;;;;;;;5.72;3.45;;;19.90;99.90;;;;;;5097870;27;20042;-80
2022/09/10 10:27:53;;;;;;;5.30;2.95;;;19.80;99.90;;;;;;5094357;27;20042;-81
2022/09/10 10:30:20;;;;;;;5.60;3.53;;;19.90;99.90;;;;;;5118604;28;20065;-78
2022/09/10 10:33:00;;;;;;;8.32;3.38;;;19.90;99.90;;;;;;5133802;28;20067;-79
2022/09/10 10:35:58;;;;;;;5.68;3.33;;;19.90;99.90;;;;;;5116776;28;20040;-79
2022/09/10 10:38:30;;;;;;;6.43;3.47;;;20.00;99.90;;;;;;5108431;28;20055;-83
2022/09/10 10:41:08;;;;;;;6.68;4.47;;;19.90;99.90;;;;;;5093747;28;20031;-82
2022/09/10 10:44:03;;;;;;;7.47;4.82;;;20.10;99.90;;;;;;5114276;28;20505;-82
2022/09/10 10:46:42;;;;;;;5.45;3.40;;;20.20;99.90;;;;;;5084438;28;20055;-82
2022/09/10 10:49:39;;;;;;;6.72;3.63;;;20.20;99.90;;;;;;5090323;28;20043;-82
2022/09/10 10:52:23;;;;;;;5.07;4.20;;;20.10;99.90;;;;;;5096530;28;20043;-82
2022/09/10 10:55:08;;;;;;;8.82;4.38;;;20.00;99.90;;;;;;5098271;28;20517;-82
2022/09/10 10:57:46;;;;;;;7.72;5.35;;;20.00;99.90;;;;;;5098425;28;20038;-82
2022/09/10 11:00:15;;;;;;;8.40;4.88;;;20.10;99.90;;;;;;5091688;28;20036;-82
2022/09/10 11:03:14;;;;;;;8.55;5.05;;;20.10;99.90;;;;;;5097959;28;20038;-83
2022/09/10 11:06:19;;;;;;;6.32;4.35;;;20.10;99.90;;;;;;5097228;28;20031;-83
2022/09/10 11:08:58;;;;;;;7.28;5.03;;;20.10;99.90;;;;;;5095207;28;20039;-83
2022/09/10 11:11:30;;;;;;;7.57;4.95;;;20.00;99.90;;;;;;5089844;28;20047;-83
2022/09/10 11:14:08;;;;;;;7.45;4.72;;;20.00;99.90;;;;;;5114874;28;20043;-83
2022/09/10 11:16:45;;;;;;;7.00;4.38;;;20.10;99.90;;;;;;5092947;28;20043;-82
2022/09/10 11:19:34;;;;;;;6.25;3.33;;;20.10;99.90;;;;;;5097042;28;20043;-83
2022/09/10 11:22:13;;;;;;;6.82;3.13;;;20.10;99.90;;;;;;5117103;28;20059;-82
2022/09/10 11:24:56;;;;;;;5.88;2.90;;;20.10;99.90;;;;;;5116987;28;20039;-82
2022/09/10 11:27:54;;;;;;;4.95;3.30;;;20.20;99.90;;;;;;5098740;28;20095;-82
2022/09/10 11:30:20;;;;;;;5.32;3.15;;;20.10;99.90;;;;;;5070804;28;20045;-82
2022/09/10 11:32:54;;;;;;;4.85;3.08;;;20.10;99.90;;;;;;5098103;28;20039;-82
2022/09/10 11:35:58;;;;;;;6.20;3.08;;;20.10;99.90;;;;;;5097417;28;20035;-82
2022/09/10 11:38:45;;;;;;;5.28;3.30;;;20.10;99.90;;;;;;5075483;28;20487;-83
2022/09/10 11:41:30;;;;;;;6.95;3.33;;;20.10;99.90;;;;;;5102377;27;20044;-82
2022/09/10 11:44:14;;;;;;;4.70;3.25;;;20.10;99.90;;;;;;5115326;28;20395;-82
2022/09/10 11:46:53;;;;;;;5.72;3.17;;;20.10;99.90;;;;;;5113532;27;20042;-82
2022/09/10 11:49:34;;;;;;;4.30;2.78;;;20.20;99.90;;;;;;5093492;27;20027;-82
2022/09/10 11:52:01;;;;;;;4.93;3.05;;;20.30;99.90;;;;;;5113313;27;20126;-82
2022/09/10 11:54:30;;;;;;;5.93;3.53;;;20.40;99.90;;;;;;5100152;27;20486;-82
2022/09/10 11:57:05;;;;;;;5.57;3.05;;;20.50;99.90;;;;;;5101452;27;20069;-82
2022/09/10 11:59:43;;;;;;;6.32;2.92;;;20.60;99.90;;;;;;5103861;27;20487;-82
2022/09/10 12:02:17;;;;;;;5.78;3.00;;;20.70;99.90;;;;;;5117066;27;20440;-82
2022/09/10 12:04:58;;;;;;;5.90;2.65;;;20.70;99.90;;;;;;5119821;27;20482;-82
2022/09/10 12:07:46;;;;;;;5.53;2.95;;;20.80;99.90;;;;;;5100369;27;20035;-82
2022/09/10 12:10:38;;;;;;;4.65;2.55;;;20.80;99.90;;;;;;5104655;27;20078;-82
2022/09/10 12:13:11;;;;;;;4.22;2.35;;;20.90;99.90;;;;;;5072208;27;20051;-80
2022/09/10 12:15:37;;;;;;;3.63;2.28;;;20.90;99.90;;;;;;5119418;27;20039;-81
2022/09/10 12:18:16;;;;;;;4.05;2.30;;;20.90;99.90;;;;;;5103276;27;20098;-81
2022/09/10 12:21:01;;;;;;;3.83;3.22;;;20.90;99.90;;;;;;5117188;28;20052;-81
2022/09/10 12:23:30;;;;;;;7.13;4.77;;;20.90;99.90;;;;;;5089907;28;20127;-84
2022/09/10 12:26:10;;;;;;;11.48;5.25;;;20.90;99.90;;;;;;5113187;28;20297;-81
2022/09/10 12:28:41;;;;;;;7.50;4.38;;;21.00;99.90;;;;;;5105960;28;20040;-82
2022/09/10 12:31:20;;;;;;;7.30;4.70;;;21.00;99.90;;;;;;5092072;28;20484;-81
2022/09/10 12:33:46;;;;;;;10.52;4.97;;;21.10;99.90;;;;;;5111431;28;20055;-81
2022/09/10 12:36:27;;;;;;;7.30;4.90;;;21.00;99.90;;;;;;5098787;28;20040;-81
2022/09/10 12:39:22;;;;;;;7.55;4.40;;;21.00;99.90;;;;;;5110223;28;20495;-81
2022/09/10 12:41:51;;;;;;;6.78;4.95;;;20.90;99.90;;;;;;5115492;27;20050;-82
2022/09/10 12:44:36;;;;;;;5.53;4.32;;;20.90;99.90;;;;;;5116185;28;20075;-81
2022/09/10 12:47:14;;;;;;;6.35;4.32;;;20.80;99.90;;;;;;5090841;28;20655;-82
2022/09/10 12:49:52;;;;;;;5.13;4.10;;;20.70;99.90;;;;;;5091433;28;20048;-80
2022/09/10 12:52:33;;;;;;;7.32;4.28;;;20.70;99.90;;;;;;5110939;28;20071;-80
2022/09/10 12:55:38;;;;;;;7.82;4.60;;;20.70;99.90;;;;;;5090527;28;20048;-80
2022/09/10 12:58:05;;;;;;;6.53;4.00;;;20.70;99.90;;;;;;5077707;28;20062;-80
2022/09/10 13:01:00;;;;;;;6.35;4.15;;;20.80;99.90;;;;;;5108916;28;20120;-80
2022/09/10 13:03:27;;;;;;;9.27;3.83;;;20.80;99.90;;;;;;5089681;28;20048;-81
2022/09/10 13:05:56;;;;;;;5.32;3.78;;;20.80;99.90;;;;;;5097473;28;20049;-81
2022/09/10 13:08:33;;;;;;;5.28;3.80;;;20.90;99.90;;;;;;5094502;28;20498;-81
2022/09/10 13:11:01;;;;;;;5.35;3.63;;;21.00;99.90;;;;;;5112604;28;20043;-82
2022/09/10 13:13:45;;;;;;;6.00;3.70;;;21.00;99.90;;;;;;5087143;28;20051;-80
2022/09/10 13:16:26;;;;;;;8.48;3.75;;;21.00;99.90;;;;;;5102266;28;20047;-80
2022/09/10 13:19:12;;;;;;;7.68;3.90;;;21.10;99.90;;;;;;5106198;28;20046;-81
2022/09/10 13:21:44;;;;;;;6.80;3.85;;;21.10;99.90;;;;;;5066713;28;20055;-81
2022/09/10 13:24:48;;;;;;;6.28;4.03;;;21.10;99.90;;;;;;5095492;28;20108;-80
2022/09/10 13:27:19;;;;;;;7.30;4.40;;;21.20;99.90;;;;;;5081373;28;20044;-81
2022/09/10 13:29:47;;;;;;;8.00;4.30;;;21.20;99.90;;;;;;5103536;28;20043;-81